Time;durP1;ratioP1;P1;durP2;ratioP2;P2;SDS_P1;SDS_P2;PMS_P1;PMS_P2;Temp;Humidity;BMP_temperature;BMP_pressure;BME280_temperature;BME280_humidity;BME280_pressure;Samples;Min_cycle;Max_cycle;Signal;HPM_P1;HPM_P2
2023/04/12 00:00:39;;;;;;;8.55;3.40;;;8.20;99.90;;;;;;4917886;29;20102;-78
2023/04/12 00:03:09;;;;;;;9.18;3.60;;;8.20;99.90;;;;;;4936291;29;20040;-78
2023/04/12 00:05:37;;;;;;;11.05;4.00;;;8.30;99.90;;;;;;4931520;29;20047;-78
2023/04/12 00:08:05;;;;;;;8.00;3.53;;;8.20;99.90;;;;;;4941741;28;20036;-78
2023/04/12 00:10:31;;;;;;;10.05;4.07;;;8.30;99.90;;;;;;4915975;29;20391;-78
2023/04/12 00:13:09;;;;;;;8.55;3.70;;;8.30;99.90;;;;;;4912725;29;20111;-78
2023/04/12 00:15:35;;;;;;;10.77;4.22;;;8.30;99.90;;;;;;4916404;29;20459;-78
2023/04/12 00:18:00;;;;;;;9.23;3.58;;;8.40;99.90;;;;;;4932244;29;20040;-78
2023/04/12 00:20:26;;;;;;;14.68;4.50;;;8.40;99.90;;;;;;4931228;29;20107;-79
2023/04/12 00:22:52;;;;;;;8.70;3.80;;;8.40;99.90;;;;;;4900461;29;20137;-78
2023/04/12 00:25:18;;;;;;;13.45;4.32;;;8.40;99.90;;;;;;4916057;29;20048;-78
2023/04/12 00:27:50;;;;;;;13.10;4.03;;;8.40;99.90;;;;;;4931923;29;20044;-78
2023/04/12 00:30:20;;;;;;;10.23;3.90;;;8.40;99.90;;;;;;4900370;29;20583;-77
2023/04/12 00:32:49;;;;;;;9.95;4.15;;;8.40;99.90;;;;;;4899011;29;20044;-78
2023/04/12 00:35:14;;;;;;;9.20;3.78;;;8.40;99.90;;;;;;4900022;29;20180;-77
2023/04/12 00:37:43;;;;;;;11.52;3.95;;;8.40;99.90;;;;;;4900272;29;20677;-78
2023/04/12 00:40:20;;;;;;;11.68;4.22;;;8.40;99.90;;;;;;4899789;29;20132;-78
2023/04/12 00:42:46;;;;;;;10.60;4.00;;;8.40;99.90;;;;;;4930577;29;20059;-78
2023/04/12 00:45:23;;;;;;;10.97;4.10;;;8.40;99.90;;;;;;4900747;29;20040;-78
2023/04/12 00:48:00;;;;;;;10.23;3.75;;;8.40;99.90;;;;;;4901957;29;20040;-78
2023/04/12 00:50:33;;;;;;;11.40;3.92;;;8.40;99.90;;;;;;4923768;29;20050;-78
2023/04/12 00:53:04;;;;;;;13.10;4.78;;;8.40;99.90;;;;;;4926746;29;20062;-78
2023/04/12 00:55:36;;;;;;;9.93;3.90;;;8.40;99.90;;;;;;4930462;29;20051;-78
2023/04/12 00:58:06;;;;;;;9.57;3.97;;;8.40;99.90;;;;;;4899345;29;20087;-79
2023/04/12 01:00:34;;;;;;;10.20;3.80;;;8.30;99.90;;;;;;4914063;29;20104;-79
2023/04/12 01:03:02;;;;;;;11.43;4.38;;;8.30;99.90;;;;;;4915298;29;20040;-79
2023/04/12 01:05:45;;;;;;;10.00;3.97;;;8.30;99.90;;;;;;4915685;29;20052;-79
2023/04/12 01:08:27;;;;;;;9.77;3.90;;;8.30;99.90;;;;;;4918416;29;20046;-79
2023/04/12 01:11:32;;;;;;;10.60;4.78;;;8.20;99.90;;;;;;4923720;29;20163;-79
2023/04/12 01:14:14;;;;;;;10.55;4.38;;;8.10;99.90;;;;;;4908765;29;20499;-79
2023/04/12 01:16:56;;;;;;;9.18;3.90;;;8.20;99.90;;;;;;4921275;29;20063;-80
2023/04/12 01:19:52;;;;;;;10.90;4.18;;;8.20;99.90;;;;;;4929537;29;20079;-79
2023/04/12 01:23:13;;;;;;;9.60;4.00;;;8.10;99.90;;;;;;4922768;29;20047;-79
2023/04/12 01:26:18;;;;;;;11.20;3.70;;;8.10;99.90;;;;;;4932197;29;20044;-79
2023/04/12 01:28:54;;;;;;;11.52;3.97;;;8.10;99.90;;;;;;4896518;29;20358;-79
2023/04/12 01:31:35;;;;;;;11.23;3.45;;;8.10;99.90;;;;;;4896241;29;20043;-79
2023/04/12 01:34:09;;;;;;;9.10;3.40;;;8.10;99.90;;;;;;4941631;28;20110;-79
2023/04/12 01:36:51;;;;;;;8.32;3.17;;;8.10;99.90;;;;;;4934093;29;20052;-79
2023/04/12 01:39:25;;;;;;;8.52;3.22;;;8.10;99.90;;;;;;4942836;29;20044;-78
2023/04/12 01:41:56;;;;;;;10.18;4.15;;;8.10;99.90;;;;;;4944736;29;20160;-79
2023/04/12 01:44:24;;;;;;;10.25;3.67;;;8.10;99.90;;;;;;4941172;29;20048;-79
2023/04/12 01:46:55;;;;;;;8.48;3.85;;;8.20;99.90;;;;;;4929996;29;20484;-79
2023/04/12 01:49:37;;;;;;;9.85;3.60;;;8.10;99.90;;;;;;4930495;29;20036;-79
2023/04/12 01:52:11;;;;;;;8.95;3.63;;;8.10;99.90;;;;;;4906412;29;20522;-79
2023/04/12 01:54:49;;;;;;;9.63;3.67;;;8.00;99.90;;;;;;4920053;29;20080;-79
2023/04/12 01:57:19;;;;;;;7.57;3.63;;;8.00;99.90;;;;;;4929727;29;20074;-79
2023/04/12 01:59:57;;;;;;;10.40;3.78;;;8.00;99.90;;;;;;4910265;29;20098;-79
2023/04/12 02:02:23;;;;;;;11.93;4.32;;;8.00;99.90;;;;;;4928950;29;20041;-79
2023/04/12 02:05:00;;;;;;;10.27;3.97;;;8.10;99.90;;;;;;4914434;29;20067;-79
2023/04/12 02:07:36;;;;;;;8.88;3.90;;;7.90;99.90;;;;;;4939465;28;20139;-79
2023/04/12 02:10:16;;;;;;;12.23;4.30;;;8.00;99.90;;;;;;4927655;29;20056;-79
2023/04/12 02:12:42;;;;;;;11.35;4.03;;;7.90;99.90;;;;;;4890806;29;20044;-78
2023/04/12 02:15:44;;;;;;;10.20;3.65;;;7.90;99.90;;;;;;4929631;29;20040;-79
2023/04/12 02:18:15;;;;;;;11.00;4.03;;;7.90;99.90;;;;;;4928981;29;20040;-79
2023/04/12 02:20:44;;;;;;;8.80;4.05;;;7.90;99.90;;;;;;4901827;29;20028;-79
2023/04/12 02:23:22;;;;;;;9.13;4.07;;;7.90;99.90;;;;;;4930970;29;20123;-79
2023/04/12 02:25:50;;;;;;;10.93;4.15;;;7.90;99.90;;;;;;4929762;29;20083;-80
2023/04/12 02:28:19;;;;;;;10.15;4.57;;;7.90;99.90;;;;;;4937047;28;20044;-79
2023/04/12 02:30:57;;;;;;;9.15;4.10;;;7.90;99.90;;;;;;4930230;29;20047;-79
2023/04/12 02:33:24;;;;;;;7.43;3.88;;;7.90;99.90;;;;;;4941567;29;20048;-79
2023/04/12 02:36:10;;;;;;;9.18;3.85;;;7.90;99.90;;;;;;4914276;29;20048;-79
2023/04/12 02:38:39;;;;;;;10.73;4.22;;;7.90;99.90;;;;;;4929350;29;20059;-79
2023/04/12 02:41:19;;;;;;;10.75;4.15;;;7.90;99.90;;;;;;4930238;29;20032;-79
2023/04/12 02:43:45;;;;;;;10.38;4.25;;;7.90;99.90;;;;;;4929212;29;20099;-79
2023/04/12 02:46:25;;;;;;;9.80;4.13;;;7.90;99.90;;;;;;4921342;29;20041;-79
2023/04/12 02:48:54;;;;;;;8.20;3.80;;;7.90;99.90;;;;;;4940432;28;20051;-79
2023/04/12 02:51:26;;;;;;;10.07;3.70;;;7.90;99.90;;;;;;4929748;29;20123;-79
2023/04/12 02:53:55;;;;;;;9.80;3.72;;;7.80;99.90;;;;;;4928555;29;20411;-80
2023/04/12 02:56:34;;;;;;;8.95;3.25;;;7.90;99.90;;;;;;4895573;29;20048;-79
2023/04/12 02:59:10;;;;;;;8.50;3.10;;;7.90;99.90;;;;;;4936788;28;20047;-79
2023/04/12 03:01:45;;;;;;;8.77;3.33;;;7.90;99.90;;;;;;4928726;29;20559;-79
2023/04/12 03:04:16;;;;;;;7.07;2.78;;;7.90;99.90;;;;;;4928976;29;20036;-79
2023/04/12 03:06:53;;;;;;;6.95;2.97;;;7.90;99.90;;;;;;4938056;29;20118;-79
2023/04/12 03:09:19;;;;;;;7.10;2.97;;;7.90;99.90;;;;;;4905671;29;20044;-79
2023/04/12 03:11:47;;;;;;;7.97;3.03;;;7.90;99.90;;;;;;4946429;29;20376;-79
2023/04/12 03:14:24;;;;;;;9.13;2.97;;;7.90;99.90;;;;;;4932785;29;20102;-79
2023/04/12 03:16:50;;;;;;;9.02;3.05;;;8.00;99.90;;;;;;4903497;29;20047;-79
2023/04/12 03:19:18;;;;;;;9.55;3.25;;;7.90;99.90;;;;;;4929907;29;20053;-80
2023/04/12 03:21:46;;;;;;;7.82;2.72;;;7.90;99.90;;;;;;4931489;29;20407;-79
2023/04/12 03:24:13;;;;;;;7.32;3.10;;;7.90;99.90;;;;;;4932436;29;20039;-79
2023/04/12 03:26:38;;;;;;;9.35;3.38;;;7.90;99.90;;;;;;4936529;29;20064;-79
2023/04/12 03:29:04;;;;;;;7.43;3.78;;;7.90;99.90;;;;;;4912399;29;20630;-79
2023/04/12 03:31:30;;;;;;;7.18;3.53;;;7.90;99.90;;;;;;4951831;29;20044;-79
2023/04/12 03:33:56;;;;;;;8.98;3.17;;;7.90;99.90;;;;;;4949740;28;20083;-79
2023/04/12 03:36:22;;;;;;;6.63;2.97;;;8.00;99.90;;;;;;4935040;29;20088;-79
2023/04/12 03:38:48;;;;;;;8.32;3.58;;;8.00;99.90;;;;;;4945387;28;20638;-79
2023/04/12 03:41:17;;;;;;;8.68;3.13;;;8.10;99.90;;;;;;4932133;29;20047;-79
2023/04/12 03:43:43;;;;;;;8.15;3.35;;;8.00;99.90;;;;;;4932303;29;20040;-78
2023/04/12 03:46:09;;;;;;;8.73;2.90;;;8.00;99.90;;;;;;4939329;29;20430;-79
2023/04/12 03:48:35;;;;;;;7.45;3.28;;;8.00;99.90;;;;;;4908414;29;20415;-79
2023/04/12 03:51:07;;;;;;;7.47;3.22;;;8.00;99.90;;;;;;4950882;29;20051;-79
2023/04/12 03:53:33;;;;;;;7.55;3.35;;;8.00;99.90;;;;;;4948168;29;20575;-79
2023/04/12 03:56:02;;;;;;;10.18;3.53;;;8.00;99.90;;;;;;4907653;29;20050;-79
2023/04/12 03:58:28;;;;;;;7.65;3.50;;;8.00;99.90;;;;;;4930549;29;20039;-79
2023/04/12 04:00:54;;;;;;;8.45;4.15;;;8.00;99.90;;;;;;4951599;29;20049;-79
2023/04/12 04:03:25;;;;;;;10.27;4.68;;;8.00;99.90;;;;;;4928828;29;20185;-79
2023/04/12 04:05:51;;;;;;;7.65;4.40;;;8.00;99.90;;;;;;4903746;29;20040;-79
2023/04/12 04:08:18;;;;;;;9.48;5.47;;;7.90;99.90;;;;;;4939894;28;20075;-79
2023/04/12 04:10:45;;;;;;;11.55;5.82;;;7.90;99.90;;;;;;4948439;29;20067;-79
2023/04/12 04:13:12;;;;;;;11.23;6.13;;;7.90;99.90;;;;;;4951298;29;20129;-79
2023/04/12 04:15:41;;;;;;;10.35;6.30;;;7.90;99.90;;;;;;4937786;29;20059;-79
2023/04/12 04:18:07;;;;;;;10.23;7.15;;;7.90;99.90;;;;;;4899639;29;20040;-81
2023/04/12 04:20:36;;;;;;;11.43;7.80;;;7.90;99.90;;;;;;4896725;29;20041;-79
2023/04/12 04:23:02;;;;;;;11.02;7.45;;;7.90;99.90;;;;;;4913210;29;20040;-79
2023/04/12 04:25:29;;;;;;;10.40;7.85;;;7.90;99.90;;;;;;4929547;29;20054;-79
2023/04/12 04:27:56;;;;;;;13.75;9.32;;;7.90;99.90;;;;;;4928199;29;20044;-78
2023/04/12 04:30:23;;;;;;;12.68;9.70;;;7.80;99.90;;;;;;4920390;29;20197;-78
2023/04/12 04:32:52;;;;;;;16.85;11.73;;;7.90;99.90;;;;;;4914331;29;20104;-79
2023/04/12 04:35:19;;;;;;;14.35;11.65;;;7.90;99.90;;;;;;4896817;29;20036;-79
2023/04/12 04:37:53;;;;;;;15.82;11.27;;;7.80;99.90;;;;;;4920998;29;20479;-79
2023/04/12 04:40:23;;;;;;;16.15;13.07;;;7.70;99.90;;;;;;4927740;29;20517;-79
2023/04/12 04:42:58;;;;;;;16.70;13.00;;;7.70;99.90;;;;;;4933536;29;20040;-79
2023/04/12 04:45:29;;;;;;;17.35;13.50;;;7.70;99.90;;;;;;4914084;29;20082;-79
2023/04/12 04:47:55;;;;;;;15.70;12.93;;;7.70;99.90;;;;;;4920154;29;20048;-79
2023/04/12 04:50:26;;;;;;;15.52;12.60;;;7.60;99.90;;;;;;4924999;29;20065;-79
2023/04/12 04:52:56;;;;;;;17.27;12.20;;;7.60;99.90;;;;;;4913831;29;20075;-79
2023/04/12 04:55:26;;;;;;;12.75;11.38;;;7.60;99.90;;;;;;4936046;29;20040;-80
2023/04/12 04:57:52;;;;;;;15.98;12.73;;;7.50;99.90;;;;;;4941943;28;20402;-80
2023/04/12 05:00:18;;;;;;;16.15;12.10;;;7.50;99.90;;;;;;4923259;29;20036;-79
2023/04/12 05:02:44;;;;;;;13.88;11.60;;;7.50;99.90;;;;;;4929993;29;20039;-80
2023/04/12 05:05:16;;;;;;;13.48;11.13;;;7.50;99.90;;;;;;4937807;29;20119;-79
2023/04/12 05:07:42;;;;;;;13.70;9.98;;;7.50;99.90;;;;;;4930860;29;20040;-78
2023/04/12 05:10:10;;;;;;;13.23;9.50;;;7.50;99.90;;;;;;4930523;29;20130;-79
2023/04/12 05:12:39;;;;;;;14.40;11.65;;;7.40;99.90;;;;;;4929655;29;20038;-79
2023/04/12 05:15:11;;;;;;;12.82;9.93;;;7.40;99.90;;;;;;4937353;29;20050;-79
2023/04/12 05:17:39;;;;;;;14.48;8.88;;;7.40;99.90;;;;;;4912176;29;20048;-79
2023/04/12 05:20:06;;;;;;;12.15;9.07;;;7.40;99.90;;;;;;4912274;29;20119;-79
2023/04/12 05:22:35;;;;;;;11.98;8.88;;;7.40;99.90;;;;;;4911267;29;20040;-79
2023/04/12 05:25:05;;;;;;;12.70;10.18;;;7.40;99.90;;;;;;4909962;29;20062;-79
2023/04/12 05:27:31;;;;;;;12.75;8.73;;;7.40;99.90;;;;;;4909968;29;20055;-80
2023/04/12 05:29:57;;;;;;;11.95;8.43;;;7.40;99.90;;;;;;4952226;29;20036;-80
2023/04/12 05:32:26;;;;;;;12.50;8.25;;;7.40;99.90;;;;;;4946805;28;20036;-80
2023/04/12 05:34:52;;;;;;;11.95;8.60;;;7.30;99.90;;;;;;4909421;29;20052;-79
2023/04/12 05:37:20;;;;;;;11.98;7.90;;;7.50;99.90;;;;;;4932424;29;20127;-79
2023/04/12 05:39:56;;;;;;;10.88;8.48;;;7.40;99.90;;;;;;4911506;29;20048;-80
2023/04/12 05:42:28;;;;;;;10.70;7.07;;;7.40;99.90;;;;;;4944219;29;20051;-79
2023/04/12 05:44:55;;;;;;;11.27;8.30;;;7.40;99.90;;;;;;4902032;29;20139;-79
2023/04/12 05:47:29;;;;;;;11.65;7.47;;;7.40;99.90;;;;;;4930892;29;20051;-79
2023/04/12 05:49:58;;;;;;;10.48;7.53;;;7.40;99.90;;;;;;4932119;29;20507;-79
2023/04/12 05:52:24;;;;;;;11.55;8.63;;;7.40;99.90;;;;;;4917484;29;20033;-80
2023/04/12 05:54:52;;;;;;;11.57;8.00;;;7.40;99.90;;;;;;4917157;29;20063;-80
2023/04/12 05:57:20;;;;;;;11.43;8.35;;;7.40;99.90;;;;;;4949627;28;20044;-79
2023/04/12 05:59:47;;;;;;;12.70;9.10;;;7.40;99.90;;;;;;4923888;29;20058;-80
2023/04/12 06:02:12;;;;;;;11.02;8.77;;;7.40;99.90;;;;;;4928343;29;20043;-79
2023/04/12 06:04:44;;;;;;;11.88;8.93;;;7.30;99.90;;;;;;4913965;29;20036;-79
2023/04/12 06:07:27;;;;;;;15.70;9.85;;;7.40;99.90;;;;;;4930507;29;20048;-79
2023/04/12 06:09:59;;;;;;;;;;;7.40;99.90;;;;;;4930886;29;20051;-79
2023/04/12 06:15:25;;;;;;;11.63;10.38;;;7.30;99.90;;;;;;4919841;29;20059;-80
2023/04/12 06:17:53;;;;;;;12.50;11.07;;;7.30;99.90;;;;;;4930134;29;20124;-79
2023/04/12 06:20:19;;;;;;;12.95;9.45;;;7.30;99.90;;;;;;4930019;29;20087;-79
2023/04/12 06:22:45;;;;;;;13.63;11.68;;;7.40;99.90;;;;;;4898017;29;20804;-79
2023/04/12 06:25:15;;;;;;;14.20;10.63;;;7.40;99.90;;;;;;4941496;29;20102;-79
2023/04/12 06:27:44;;;;;;;11.40;10.20;;;7.40;99.90;;;;;;4938307;29;20407;-79
2023/04/12 06:30:16;;;;;;;13.57;11.45;;;7.40;99.90;;;;;;4928855;29;20499;-79
2023/04/12 06:32:47;;;;;;;11.57;10.45;;;7.40;99.90;;;;;;4903726;29;20078;-79
2023/04/12 06:35:21;;;;;;;14.30;12.35;;;7.40;99.90;;;;;;4939617;29;20090;-79
2023/04/12 06:37:52;;;;;;;13.68;11.98;;;7.40;99.90;;;;;;4928709;29;20055;-79
2023/04/12 06:40:18;;;;;;;15.43;13.93;;;7.50;99.90;;;;;;4927015;29;20040;-78
2023/04/12 06:42:46;;;;;;;14.15;12.60;;;7.40;99.90;;;;;;4900102;29;20763;-77
2023/04/12 06:45:12;;;;;;;13.05;11.75;;;7.40;99.90;;;;;;4926536;29;20398;-77
2023/04/12 06:47:37;;;;;;;16.45;14.77;;;7.50;99.90;;;;;;4934940;29;20044;-76
2023/04/12 06:50:05;;;;;;;15.85;14.35;;;7.40;99.90;;;;;;4934575;29;20032;-78
2023/04/12 06:52:34;;;;;;;15.15;13.63;;;7.50;99.90;;;;;;4929972;29;20052;-77
2023/04/12 06:55:00;;;;;;;17.75;16.05;;;7.40;99.90;;;;;;4932458;29;20052;-77
2023/04/12 06:57:25;;;;;;;16.52;14.82;;;7.40;99.90;;;;;;4929746;29;20387;-77
2023/04/12 06:59:51;;;;;;;17.80;16.02;;;7.40;99.90;;;;;;4928771;29;20409;-77
2023/04/12 07:02:17;;;;;;;16.75;15.35;;;7.40;99.90;;;;;;4928943;29;20082;-77
2023/04/12 07:04:46;;;;;;;17.60;15.93;;;7.40;99.90;;;;;;4936998;29;20051;-77
2023/04/12 07:07:12;;;;;;;18.52;16.83;;;7.40;99.90;;;;;;4925281;29;20040;-77
2023/04/12 07:09:37;;;;;;;19.10;17.50;;;7.50;99.90;;;;;;4921636;29;20040;-77
2023/04/12 07:12:03;;;;;;;20.70;18.67;;;7.40;99.90;;;;;;4920684;29;20042;-77
2023/04/12 07:14:29;;;;;;;20.02;18.23;;;7.50;99.90;;;;;;4922771;29;20117;-77
2023/04/12 07:16:55;;;;;;;22.02;20.02;;;7.40;99.90;;;;;;4940726;29;20103;-77
2023/04/12 07:19:21;;;;;;;21.13;19.15;;;7.40;99.90;;;;;;4948004;29;20043;-77
2023/04/12 07:21:46;;;;;;;21.40;19.60;;;7.50;99.90;;;;;;4941158;29;20573;-77
2023/04/12 07:24:12;;;;;;;23.77;21.58;;;7.50;99.90;;;;;;4934671;29;20043;-77
2023/04/12 07:26:38;;;;;;;24.08;21.80;;;7.40;99.90;;;;;;4918350;29;20055;-76
2023/04/12 07:29:06;;;;;;;23.38;21.38;;;7.50;99.90;;;;;;4916503;29;20036;-76
2023/04/12 07:31:31;;;;;;;24.27;22.08;;;7.40;99.90;;;;;;4898307;29;20032;-76
2023/04/12 07:33:57;;;;;;;26.15;23.80;;;7.50;99.90;;;;;;4906497;29;20404;-75
2023/04/12 07:36:32;;;;;;;25.23;23.02;;;7.50;99.90;;;;;;4907205;29;20036;-75
2023/04/12 07:39:01;;;;;;;21.63;19.70;;;7.60;99.90;;;;;;4951493;28;20040;-75
2023/04/12 07:41:29;;;;;;;25.20;23.05;;;7.50;99.90;;;;;;4949402;29;20114;-75
2023/04/12 07:44:11;;;;;;;23.55;21.40;;;7.60;99.90;;;;;;4914445;29;20480;-75
2023/04/12 07:46:43;;;;;;;29.75;27.00;;;7.60;99.90;;;;;;4932185;28;20044;-75
2023/04/12 07:49:21;;;;;;;33.08;30.05;;;7.50;99.90;;;;;;4916257;29;20127;-75
2023/04/12 07:52:04;;;;;;;29.65;27.35;;;7.60;99.90;;;;;;4867031;29;20408;-75
2023/04/12 07:54:47;;;;;;;36.97;33.67;;;7.60;99.90;;;;;;4911077;29;20036;-75
2023/04/12 07:57:16;;;;;;;;;;;7.70;99.90;;;;;;4929401;29;20040;-74
2023/04/12 07:59:41;;;;;;;36.60;33.55;;;7.70;99.90;;;;;;4916383;29;19953;-75
2023/04/12 08:02:07;;;;;;;39.47;35.92;;;7.70;99.90;;;;;;4937002;29;20098;-75
2023/04/12 08:04:33;;;;;;;35.38;32.50;;;7.70;99.90;;;;;;4937875;29;20043;-76
2023/04/12 08:06:58;;;;;;;35.60;32.60;;;7.80;99.90;;;;;;4928794;29;20077;-76
2023/04/12 08:09:24;;;;;;;37.15;33.95;;;7.80;99.90;;;;;;4928673;29;20047;-76
2023/04/12 08:11:50;;;;;;;34.58;31.92;;;7.80;99.90;;;;;;4917835;29;20079;-76
2023/04/12 08:14:19;;;;;;;32.38;29.42;;;7.90;99.90;;;;;;4931633;29;20071;-80
2023/04/12 08:16:45;;;;;;;35.65;32.65;;;7.90;99.90;;;;;;4900364;29;20043;-77
2023/04/12 08:19:11;;;;;;;31.35;28.88;;;8.00;99.90;;;;;;4930778;29;20499;-76
2023/04/12 08:21:39;;;;;;;32.58;29.85;;;8.10;99.90;;;;;;4932053;29;20063;-78
2023/04/12 08:24:05;;;;;;;35.97;32.63;;;8.20;99.90;;;;;;4941128;29;20139;-78
2023/04/12 08:26:33;;;;;;;35.17;32.08;;;8.20;99.90;;;;;;4905673;29;20043;-76
2023/04/12 08:28:59;;;;;;;29.27;26.65;;;8.30;99.90;;;;;;4915695;29;20384;-76
2023/04/12 08:31:28;;;;;;;29.58;27.13;;;8.30;99.90;;;;;;4914195;29;20103;-78
2023/04/12 08:33:55;;;;;;;31.88;28.98;;;8.30;99.90;;;;;;4929193;29;20639;-78
2023/04/12 08:36:29;;;;;;;29.42;26.92;;;8.30;99.90;;;;;;4910130;29;20511;-77
2023/04/12 08:39:02;;;;;;;29.35;26.85;;;8.20;99.90;;;;;;4915948;29;20067;-77
2023/04/12 08:41:30;;;;;;;27.65;25.25;;;8.40;99.90;;;;;;4934688;29;20080;-78
2023/04/12 08:44:15;;;;;;;27.88;25.65;;;8.30;99.90;;;;;;4898507;29;20051;-78
2023/04/12 08:46:43;;;;;;;29.25;26.85;;;8.40;99.90;;;;;;4912290;29;20138;-78
2023/04/12 08:49:37;;;;;;;28.88;26.38;;;8.40;99.90;;;;;;4901404;29;20040;-78
2023/04/12 08:52:09;;;;;;;24.58;22.38;;;8.40;99.90;;;;;;4926833;29;20046;-78
2023/04/12 08:54:41;;;;;;;31.40;28.55;;;8.50;99.90;;;;;;4938934;29;20156;-78
2023/04/12 08:59:37;;;;;;;22.63;20.48;;;8.50;99.90;;;;;;4920114;29;20054;-73
2023/04/12 09:02:03;;;;;;;25.63;23.13;;;8.60;99.90;;;;;;4924017;29;20449;-73
2023/04/12 09:04:29;;;;;;;22.48;20.48;;;8.70;99.90;;;;;;4922309;29;20052;-73
2023/04/12 09:06:55;;;;;;;25.85;23.40;;;8.80;99.90;;;;;;4909106;29;20044;-73
2023/04/12 09:09:41;;;;;;;27.08;24.45;;;8.90;99.90;;;;;;4899404;29;20051;-73
2023/04/12 09:12:08;;;;;;;23.45;21.15;;;9.10;99.90;;;;;;4915046;29;20426;-74
2023/04/12 09:14:34;;;;;;;19.08;17.17;;;9.40;99.90;;;;;;4897867;29;20123;-74
2023/04/12 09:16:59;;;;;;;18.35;16.73;;;9.60;99.90;;;;;;4927298;29;20555;-73
2023/04/12 09:19:30;;;;;;;16.10;14.40;;;9.80;99.90;;;;;;4910929;29;20044;-72
2023/04/12 09:21:56;;;;;;;18.83;17.13;;;9.80;99.90;;;;;;4920016;29;20058;-72
2023/04/12 09:24:24;;;;;;;15.02;13.50;;;9.90;99.90;;;;;;4934351;29;20506;-72
2023/04/12 09:27:05;;;;;;;14.02;12.63;;;9.90;99.90;;;;;;4934111;29;20032;-72
2023/04/12 09:29:32;;;;;;;12.43;10.90;;;9.90;99.90;;;;;;4926322;29;20036;-72
2023/04/12 09:32:04;;;;;;;12.45;10.82;;;9.90;99.90;;;;;;4921025;29;20044;-72
2023/04/12 09:34:31;;;;;;;13.70;11.48;;;9.90;99.90;;;;;;4913933;29;20069;-73
2023/04/12 09:36:57;;;;;;;15.45;12.90;;;10.00;99.90;;;;;;4923124;29;20047;-72
2023/04/12 09:39:33;;;;;;;12.65;9.93;;;10.10;99.90;;;;;;4915097;29;20554;-73
2023/04/12 09:42:09;;;;;;;12.32;11.07;;;10.30;99.90;;;;;;4914304;29;20529;-72
2023/04/12 09:44:35;;;;;;;9.77;8.20;;;10.40;99.90;;;;;;4922411;29;20099;-72
2023/04/12 09:47:03;;;;;;;11.88;9.77;;;10.70;99.90;;;;;;4932930;29;20047;-73
2023/04/12 09:49:40;;;;;;;10.43;8.30;;;11.10;99.90;;;;;;4931146;29;20134;-73
2023/04/12 09:52:07;;;;;;;10.32;7.97;;;11.60;99.90;;;;;;4916499;29;20043;-73
2023/04/12 09:54:40;;;;;;;13.90;8.43;;;11.90;99.90;;;;;;4918321;29;20051;-73
2023/04/12 09:57:07;;;;;;;;;;;12.50;99.90;;;;;;4915093;29;20040;-73
2023/04/12 09:59:36;;;;;;;9.52;6.20;;;12.80;99.90;;;;;;4914667;29;19922;-73
2023/04/12 10:02:16;;;;;;;14.18;6.25;;;12.90;99.90;;;;;;4920481;29;20048;-73
2023/04/12 10:04:42;;;;;;;9.02;5.10;;;13.10;99.90;;;;;;4913222;29;20395;-73
2023/04/12 10:07:09;;;;;;;12.82;5.28;;;13.30;99.90;;;;;;4921687;29;20035;-73
2023/04/12 10:09:37;;;;;;;10.52;4.20;;;13.70;99.90;;;;;;4933184;29;20042;-73
2023/04/12 10:12:03;;;;;;;13.50;4.47;;;13.80;99.90;;;;;;4900722;29;20044;-73
2023/04/12 10:14:30;;;;;;;10.88;4.82;;;13.60;99.90;;;;;;4921946;29;20082;-73
2023/04/12 10:16:57;;;;;;;20.60;5.13;;;13.50;99.90;;;;;;4914189;29;20052;-73
2023/04/12 10:19:25;;;;;;;10.50;4.60;;;13.50;99.90;;;;;;4914428;29;20487;-72
2023/04/12 10:21:51;;;;;;;11.90;5.18;;;13.40;99.90;;;;;;4922852;29;20070;-73
2023/04/12 10:24:17;;;;;;;13.63;4.53;;;13.80;99.90;;;;;;4926617;29;20503;-74
2023/04/12 10:26:43;;;;;;;13.85;4.25;;;14.00;99.90;;;;;;4929134;29;20043;-73
2023/04/12 10:29:25;;;;;;;15.27;4.10;;;14.00;99.90;;;;;;4917625;29;20062;-73
2023/04/12 10:31:55;;;;;;;12.43;3.95;;;14.40;99.90;;;;;;4928327;29;20044;-73
2023/04/12 10:34:28;;;;;;;11.35;3.90;;;14.50;99.90;;;;;;4921009;29;20052;-73
2023/04/12 10:36:56;;;;;;;16.13;3.90;;;14.40;99.90;;;;;;4937256;29;20123;-72
2023/04/12 10:39:42;;;;;;;13.30;3.25;;;14.10;99.90;;;;;;4920945;29;20047;-73
2023/04/12 10:42:17;;;;;;;14.35;4.00;;;13.60;99.90;;;;;;4925572;29;20040;-73
2023/04/12 10:44:43;;;;;;;12.48;3.38;;;13.10;99.90;;;;;;4933813;29;20048;-74
2023/04/12 10:47:10;;;;;;;13.50;3.97;;;13.00;99.90;;;;;;4928926;29;20086;-74
2023/04/12 10:49:36;;;;;;;12.07;4.03;;;12.90;99.90;;;;;;4936651;29;20043;-74
2023/04/12 10:52:08;;;;;;;16.77;3.97;;;13.10;99.90;;;;;;4926898;29;20167;-74
2023/04/12 10:54:34;;;;;;;12.80;4.35;;;13.80;99.90;;;;;;4922244;29;20044;-74
2023/04/12 10:57:01;;;;;;;12.63;3.88;;;14.60;99.90;;;;;;4920704;29;20506;-74
2023/04/12 10:59:50;;;;;;;12.27;3.38;;;15.20;99.90;;;;;;4922156;29;20355;-75
2023/04/12 11:02:16;;;;;;;11.80;3.45;;;15.80;99.90;;;;;;4916655;29;20495;-73
2023/04/12 11:05:07;;;;;;;11.65;3.42;;;16.00;99.90;;;;;;4918122;29;20075;-74
2023/04/12 11:07:43;;;;;;;10.82;3.22;;;16.00;99.90;;;;;;4924712;29;20122;-73
2023/04/12 11:10:14;;;;;;;11.75;3.72;;;15.70;99.90;;;;;;4920742;29;20478;-73
2023/04/12 11:12:40;;;;;;;10.52;4.07;;;15.20;99.90;;;;;;4932661;29;20039;-73
2023/04/12 11:15:10;;;;;;;13.40;3.60;;;15.10;99.90;;;;;;4928245;29;20066;-73
2023/04/12 11:17:36;;;;;;;14.68;3.65;;;15.10;99.90;;;;;;4921425;29;20048;-73
2023/04/12 11:20:02;;;;;;;11.57;3.15;;;15.40;99.90;;;;;;4921096;29;20048;-73
2023/04/12 11:22:31;;;;;;;13.23;3.55;;;15.90;99.90;;;;;;4900187;29;20132;-73
2023/04/12 11:25:01;;;;;;;10.32;2.90;;;16.20;99.90;;;;;;4917863;29;20491;-73
2023/04/12 11:27:28;;;;;;;10.52;3.22;;;16.00;99.90;;;;;;4931530;29;20055;-74
2023/04/12 11:29:56;;;;;;;12.65;3.92;;;15.50;99.90;;;;;;4916153;29;20066;-74
2023/04/12 11:32:27;;;;;;;15.40;3.60;;;15.00;99.90;;;;;;4921982;29;20398;-74
2023/04/12 11:34:55;;;;;;;11.98;3.50;;;14.40;99.90;;;;;;4918121;29;20072;-74
2023/04/12 11:37:21;;;;;;;16.15;4.22;;;14.00;99.90;;;;;;4926614;29;20042;-74
2023/04/12 11:39:50;;;;;;;12.63;3.78;;;13.70;99.90;;;;;;4921501;29;20059;-74
2023/04/12 11:42:21;;;;;;;9.93;2.85;;;13.50;99.90;;;;;;4926749;29;20422;-74
2023/04/12 11:44:47;;;;;;;12.75;3.63;;;13.50;99.90;;;;;;4927481;29;20147;-74
2023/04/12 11:47:31;;;;;;;13.75;3.72;;;13.50;99.90;;;;;;4935786;29;20100;-74
2023/04/12 11:49:57;;;;;;;13.52;3.63;;;13.50;99.90;;;;;;4935592;29;20050;-74
2023/04/12 11:52:29;;;;;;;12.40;3.65;;;13.90;99.90;;;;;;4935590;29;20398;-74
2023/04/12 11:54:57;;;;;;;10.40;3.50;;;15.10;99.90;;;;;;4918220;29;20051;-74
2023/04/12 11:57:23;;;;;;;13.00;3.47;;;16.20;99.90;;;;;;4916445;29;20059;-74
2023/04/12 11:59:49;;;;;;;13.00;3.50;;;16.80;99.90;;;;;;4916441;29;20056;-74
2023/04/12 12:02:19;;;;;;;10.70;3.17;;;17.10;99.90;;;;;;4916295;29;20076;-74
2023/04/12 12:04:47;;;;;;;13.82;3.70;;;16.90;99.90;;;;;;4916299;29;20063;-74
2023/04/12 12:07:15;;;;;;;9.75;3.00;;;16.10;99.90;;;;;;4916269;29;20683;-74
2023/04/12 12:09:42;;;;;;;13.25;3.60;;;15.40;99.90;;;;;;4916388;29;20048;-74
2023/04/12 12:12:12;;;;;;;15.98;4.20;;;14.60;99.90;;;;;;4915333;29;20099;-74
2023/04/12 12:14:38;;;;;;;14.02;3.53;;;14.00;99.90;;;;;;4916448;29;20403;-74
2023/04/12 12:17:11;;;;;;;20.40;3.53;;;13.70;99.90;;;;;;4916429;29;20055;-74
2023/04/12 12:19:39;;;;;;;16.17;3.60;;;13.50;99.90;;;;;;4916127;29;20087;-74
2023/04/12 12:22:16;;;;;;;13.80;3.78;;;13.20;99.90;;;;;;4915875;29;20044;-74
2023/04/12 12:24:50;;;;;;;15.50;3.92;;;13.20;99.90;;;;;;4916164;29;20044;-74
2023/04/12 12:27:23;;;;;;;16.52;4.25;;;13.20;99.90;;;;;;4915255;29;20054;-74
2023/04/12 12:29:52;;;;;;;14.85;3.88;;;13.20;99.90;;;;;;4916205;29;20083;-74
2023/04/12 12:32:19;;;;;;;14.18;3.60;;;13.30;99.90;;;;;;4915941;29;20394;-74
2023/04/12 12:34:55;;;;;;;19.10;4.82;;;13.40;99.90;;;;;;4915949;29;20423;-74
2023/04/12 12:37:26;;;;;;;14.48;4.00;;;13.60;99.90;;;;;;4915961;29;20090;-74
2023/04/12 12:40:12;;;;;;;15.70;3.53;;;13.70;99.90;;;;;;4915789;29;20096;-74
2023/04/12 12:42:46;;;;;;;15.18;3.67;;;13.60;99.90;;;;;;4916051;29;20506;-74
2023/04/12 12:45:12;;;;;;;16.65;3.97;;;13.40;99.90;;;;;;4914966;29;20048;-74
2023/04/12 12:47:53;;;;;;;13.35;3.40;;;13.30;99.90;;;;;;4915902;29;20406;-74
2023/04/12 12:50:21;;;;;;;14.15;3.90;;;13.10;99.90;;;;;;4915686;29;20095;-74
2023/04/12 12:52:47;;;;;;;13.55;3.28;;;13.10;99.90;;;;;;4915241;29;20095;-74
2023/04/12 12:55:16;;;;;;;12.07;3.08;;;13.00;99.90;;;;;;4914933;29;20055;-74
2023/04/12 12:57:43;;;;;;;14.25;3.42;;;12.90;99.90;;;;;;4915206;29;20078;-74
2023/04/12 13:00:09;;;;;;;12.57;3.05;;;12.90;99.90;;;;;;4931139;29;20055;-74
2023/04/12 13:02:36;;;;;;;14.90;3.65;;;13.00;99.90;;;;;;4911260;29;20415;-74
2023/04/12 13:05:03;;;;;;;14.25;3.40;;;13.00;99.90;;;;;;4907368;29;20047;-74